Time;durP1;ratioP1;P1;durP2;ratioP2;P2;SDS_P1;SDS_P2;PMS_P1;PMS_P2;Temp;Humidity;BMP_temperature;BMP_pressure;BME280_temperature;BME280_humidity;BME280_pressure;Samples;Min_cycle;Max_cycle;Signal;HPM_P1;HPM_P2
2021/07/19 00:00:11;;;;;;;6.70;6.05;;;;;;;;;;2080667;28;100014;-13
2021/07/19 00:01:12;;;;;;;6.65;5.70;;;;;;;;;;2081340;28;99960;-14
2021/07/19 00:02:13;;;;;;;6.40;5.65;;;;;;;;;;2080839;28;99810;-13
2021/07/19 00:03:17;;;;;;;6.82;5.90;;;;;;;;;;2081160;28;99781;-14
2021/07/19 00:04:19;;;;;;;5.80;5.40;;;;;;;;;;2080813;27;99864;-13
2021/07/19 00:05:23;;;;;;;6.20;5.70;;;;;;;;;;2080436;28;99948;-14
2021/07/19 00:06:24;;;;;;;5.82;5.32;;;;;;;;;;2071422;28;99972;-15
2021/07/19 00:07:25;;;;;;;6.05;5.55;;;;;;;;;;2072128;28;100049;-14
2021/07/19 00:08:28;;;;;;;5.80;5.30;;;;;;;;;;2080063;27;100089;-14
2021/07/19 00:09:29;;;;;;;6.60;6.00;;;;;;;;;;2080226;28;100223;-14
2021/07/19 00:10:30;;;;;;;6.03;5.60;;;;;;;;;;2080713;28;100211;-14
2021/07/19 00:11:31;;;;;;;;;;;;;;;;;;2080604;28;100035;-15
2021/07/19 00:12:32;;;;;;;5.85;5.15;;;;;;;;;;2080553;28;100225;-14
2021/07/19 00:13:33;;;;;;;5.72;5.25;;;;;;;;;;2081000;28;99817;-13
2021/07/19 00:14:34;;;;;;;5.70;5.20;;;;;;;;;;2080511;27;100060;-13
2021/07/19 00:15:38;;;;;;;5.45;5.03;;;;;;;;;;2080778;28;100110;-13
2021/07/19 00:16:39;;;;;;;6.13;5.63;;;;;;;;;;2080823;28;99920;-14
2021/07/19 00:17:42;;;;;;;5.82;5.32;;;;;;;;;;2080823;28;99936;-14
2021/07/19 00:18:44;;;;;;;5.82;5.32;;;;;;;;;;2080217;28;100107;-15
2021/07/19 00:19:46;;;;;;;6.30;5.70;;;;;;;;;;2080450;28;99803;-13
2021/07/19 00:20:48;;;;;;;6.40;5.45;;;;;;;;;;2071883;28;100031;-14
2021/07/19 00:21:49;;;;;;;5.20;4.75;;;;;;;;;;2080492;28;100022;-14
2021/07/19 00:22:51;;;;;;;5.47;5.05;;;;;;;;;;2080837;27;100000;-13
2021/07/19 00:23:52;;;;;;;5.70;5.30;;;;;;;;;;2081074;28;99856;-14
2021/07/19 00:24:54;;;;;;;5.72;5.32;;;;;;;;;;2080511;27;99984;-13
2021/07/19 00:25:55;;;;;;;;;;;;;;;;;;2081167;28;99842;-14
2021/07/19 00:26:55;;;;;;;5.70;5.30;;;;;;;;;;2081259;28;99780;-13
2021/07/19 00:27:57;;;;;;;5.72;5.32;;;;;;;;;;2080938;28;99836;-13
2021/07/19 00:29:01;;;;;;;5.82;5.38;;;;;;;;;;2080792;28;100040;-13
2021/07/19 00:30:03;;;;;;;5.25;4.80;;;;;;;;;;2081043;28;99964;-14
2021/07/19 00:31:05;;;;;;;5.68;5.18;;;;;;;;;;2080857;27;99916;-14
2021/07/19 00:32:07;;;;;;;5.78;5.28;;;;;;;;;;2080954;28;99891;-13
2021/07/19 00:33:08;;;;;;;5.43;5.03;;;;;;;;;;2080881;28;99927;-13
2021/07/19 00:34:09;;;;;;;5.10;4.70;;;;;;;;;;2080896;28;99774;-13
2021/07/19 00:35:10;;;;;;;5.40;5.00;;;;;;;;;;2080572;28;99937;-13
2021/07/19 00:36:11;;;;;;;5.80;5.30;;;;;;;;;;2081138;27;99922;-15
2021/07/19 00:37:22;;;;;;;5.43;5.07;;;;;;;;;;2080687;28;100053;-13
2021/07/19 00:38:23;;;;;;;5.68;5.28;;;;;;;;;;2080187;28;99936;-13
2021/07/19 00:39:24;;;;;;;;;;;;;;;;;;2079945;28;99957;-13
2021/07/19 00:40:26;;;;;;;;;;;;;;;;;;2081578;28;99932;-13
2021/07/19 00:41:27;;;;;;;5.00;4.68;;;;;;;;;;2081030;28;99777;-13
2021/07/19 00:42:28;;;;;;;5.30;4.80;;;;;;;;;;2080443;28;99825;-13
2021/07/19 00:43:30;;;;;;;5.13;4.72;;;;;;;;;;2071892;28;100086;-14
2021/07/19 00:44:32;;;;;;;5.65;5.22;;;;;;;;;;2080171;28;100102;-14
2021/07/19 00:45:34;;;;;;;5.47;5.07;;;;;;;;;;2079751;28;100069;-15
2021/07/19 00:46:35;;;;;;;5.07;4.78;;;;;;;;;;2072354;28;100014;-14
2021/07/19 00:47:37;;;;;;;5.15;4.75;;;;;;;;;;2080140;28;100327;-13
2021/07/19 00:48:39;;;;;;;4.90;4.60;;;;;;;;;;2071817;28;100136;-13
2021/07/19 00:49:43;;;;;;;5.20;4.80;;;;;;;;;;2071377;28;99926;-14
2021/07/19 00:50:45;;;;;;;4.90;4.60;;;;;;;;;;2080163;28;100076;-15
2021/07/19 00:51:46;;;;;;;4.85;4.55;;;;;;;;;;2063382;28;99989;-14
2021/07/19 00:52:48;;;;;;;5.30;4.90;;;;;;;;;;2064067;28;100022;-14
2021/07/19 00:53:52;;;;;;;5.03;4.68;;;;;;;;;;2071990;28;100093;-15
2021/07/19 00:54:55;;;;;;;5.53;5.03;;;;;;;;;;2072443;28;99953;-16
2021/07/19 00:55:58;;;;;;;5.47;5.07;;;;;;;;;;2071983;28;100047;-19
2021/07/19 00:57:02;;;;;;;5.05;4.68;;;;;;;;;;2074121;28;100416;-13
2021/07/19 00:58:04;;;;;;;5.40;4.90;;;;;;;;;;2074425;28;100086;-13
2021/07/19 00:59:06;;;;;;;5.00;4.70;;;;;;;;;;2074696;28;99942;-13
2021/07/19 01:00:09;;;;;;;5.28;4.90;;;;;;;;;;2074588;28;99985;-14
2021/07/19 01:01:12;;;;;;;5.22;4.72;;;;;;;;;;2074713;28;100008;-13
2021/07/19 01:02:15;;;;;;;4.97;4.60;;;;;;;;;;2074687;28;100023;-15
2021/07/19 01:03:18;;;;;;;5.53;4.95;;;;;;;;;;2074755;28;99847;-13
2021/07/19 01:04:20;;;;;;;4.72;4.43;;;;;;;;;;2074077;28;99919;-13
2021/07/19 01:05:28;;;;;;;4.82;4.50;;;;;;;;;;2065956;28;99974;-14
2021/07/19 01:06:32;;;;;;;4.75;4.45;;;;;;;;;;2059707;28;99960;-13
2021/07/19 01:07:37;;;;;;;4.80;4.50;;;;;;;;;;2066522;28;100027;-13
2021/07/19 01:08:42;;;;;;;5.15;4.75;;;;;;;;;;2066759;28;100003;-14
2021/07/19 01:09:44;;;;;;;5.15;4.80;;;;;;;;;;2074707;28;99930;-13
2021/07/19 01:10:47;;;;;;;5.30;4.80;;;;;;;;;;2074299;28;100205;-13
2021/07/19 01:11:47;;;;;;;4.57;4.32;;;;;;;;;;2074437;28;100004;-13
2021/07/19 01:12:53;;;;;;;;;;;;;;;;;;2066370;28;99859;-15
2021/07/19 01:13:56;;;;;;;5.03;4.63;;;;;;;;;;2084037;27;99803;-14
2021/07/19 01:14:57;;;;;;;5.38;4.97;;;;;;;;;;2091350;27;100177;-14
2021/07/19 01:15:59;;;;;;;4.45;4.18;;;;;;;;;;2074850;28;100308;-13
2021/07/19 01:17:01;;;;;;;4.63;4.32;;;;;;;;;;2066183;28;100018;-13
2021/07/19 01:18:02;;;;;;;4.63;4.32;;;;;;;;;;2074732;28;100029;-14
2021/07/19 01:19:04;;;;;;;4.80;4.50;;;;;;;;;;2075285;28;99978;-13
2021/07/19 01:20:09;;;;;;;4.75;4.45;;;;;;;;;;2074404;28;99953;-14
2021/07/19 01:21:54;;;;;;;4.60;4.25;;;;;;;;;;2066170;28;100308;-14
2021/07/19 01:23:08;;;;;;;4.72;4.32;;;;;;;;;;2072038;28;99993;-13
2021/07/19 01:24:50;;;;;;;4.93;4.60;;;;;;;;;;2068199;28;99898;-13
2021/07/19 01:25:54;;;;;;;4.90;4.50;;;;;;;;;;2055909;28;100171;-14
2021/07/19 01:27:15;;;;;;;4.68;4.35;;;;;;;;;;2066810;28;100059;-14
2021/07/19 01:28:55;;;;;;;4.32;4.03;;;;;;;;;;2074596;28;99822;-13
2021/07/19 01:29:58;;;;;;;4.63;4.32;;;;;;;;;;2054686;28;99893;-13
2021/07/19 01:31:04;;;;;;;4.22;4.00;;;;;;;;;;2065596;28;99894;-14
2021/07/19 01:32:07;;;;;;;4.80;4.50;;;;;;;;;;2064822;28;99982;-14
2021/07/19 01:33:11;;;;;;;4.60;4.20;;;;;;;;;;2049227;28;100184;-13
2021/07/19 01:34:18;;;;;;;4.90;4.60;;;;;;;;;;2041645;28;99985;-14
2021/07/19 01:35:22;;;;;;;4.43;4.13;;;;;;;;;;2047938;28;100321;-13
2021/07/19 01:36:29;;;;;;;4.15;3.92;;;;;;;;;;2066022;28;99917;-13
2021/07/19 01:37:54;;;;;;;4.43;4.13;;;;;;;;;;2063618;28;100032;-15
2021/07/19 01:39:17;;;;;;;4.47;4.18;;;;;;;;;;2068877;28;99885;-14
2021/07/19 01:40:19;;;;;;;4.65;4.35;;;;;;;;;;2065409;28;99827;-13
2021/07/19 01:41:23;;;;;;;4.75;4.35;;;;;;;;;;2065774;28;100088;-14
2021/07/19 01:42:24;;;;;;;4.43;4.13;;;;;;;;;;2066138;28;99947;-13
2021/07/19 01:43:26;;;;;;;5.03;4.70;;;;;;;;;;2073738;28;99963;-13
2021/07/19 01:44:28;;;;;;;4.35;4.05;;;;;;;;;;2066082;28;99871;-14
2021/07/19 01:45:30;;;;;;;4.47;4.18;;;;;;;;;;2057131;28;100188;-13
2021/07/19 01:46:33;;;;;;;4.38;4.07;;;;;;;;;;2058111;28;99896;-13
2021/07/19 01:47:36;;;;;;;4.93;4.63;;;;;;;;;;2065799;28;99904;-13
2021/07/19 01:48:37;;;;;;;4.57;4.28;;;;;;;;;;2073536;28;100016;-13
2021/07/19 01:49:41;;;;;;;4.88;4.47;;;;;;;;;;2073597;28;99913;-13
2021/07/19 01:50:42;;;;;;;4.85;4.45;;;;;;;;;;2073738;28;100164;-15
2021/07/19 01:51:58;;;;;;;4.30;4.10;;;;;;;;;;2073674;28;99973;-13
2021/07/19 01:53:03;;;;;;;4.28;4.00;;;;;;;;;;2074154;28;99905;-13
2021/07/19 01:54:05;;;;;;;4.60;4.30;;;;;;;;;;2065511;28;99896;-13
2021/07/19 01:55:07;;;;;;;4.50;4.20;;;;;;;;;;2073871;28;99971;-14
2021/07/19 01:56:09;;;;;;;4.55;4.25;;;;;;;;;;2073729;28;100774;-13
2021/07/19 01:57:13;;;;;;;4.70;4.40;;;;;;;;;;2065946;28;100016;-12
2021/07/19 01:58:26;;;;;;;4.55;4.25;;;;;;;;;;2066468;28;100668;-13
2021/07/19 01:59:36;;;;;;;4.50;4.10;;;;;;;;;;2074001;28;100095;-14
2021/07/19 02:00:53;;;;;;;4.20;3.97;;;;;;;;;;2059511;28;99989;-13
2021/07/19 02:01:55;;;;;;;4.57;4.28;;;;;;;;;;2067929;28;99929;-14
2021/07/19 02:02:56;;;;;;;4.30;4.00;;;;;;;;;;2073998;28;99867;-13
2021/07/19 02:03:58;;;;;;;4.30;4.10;;;;;;;;;;2073598;28;99873;-13
2021/07/19 02:04:59;;;;;;;4.22;4.03;;;;;;;;;;2074180;28;100173;-14
2021/07/19 02:06:04;;;;;;;4.43;4.13;;;;;;;;;;2074021;28;99984;-14
2021/07/19 02:07:06;;;;;;;4.45;4.15;;;;;;;;;;2065552;28;99912;-13
2021/07/19 02:08:08;;;;;;;4.30;4.00;;;;;;;;;;2065389;28;100026;-13
2021/07/19 02:09:24;;;;;;;4.28;4.07;;;;;;;;;;2064479;28;100062;-13
2021/07/19 02:10:51;;;;;;;4.30;4.00;;;;;;;;;;2053215;28;100128;-13
2021/07/19 02:11:59;;;;;;;4.72;4.25;;;;;;;;;;2073938;28;99795;-13
2021/07/19 02:13:03;;;;;;;4.13;3.92;;;;;;;;;;2073711;28;99926;-14
2021/07/19 02:14:10;;;;;;;4.10;3.90;;;;;;;;;;2073855;28;100315;-14
2021/07/19 02:15:17;;;;;;;4.10;3.80;;;;;;;;;;2073505;28;100102;-14
2021/07/19 02:16:19;;;;;;;4.35;4.05;;;;;;;;;;2065900;28;99910;-14
2021/07/19 02:17:24;;;;;;;4.40;4.10;;;;;;;;;;2065827;28;100079;-13
2021/07/19 02:18:26;;;;;;;4.40;4.10;;;;;;;;;;2073412;28;100042;-14
2021/07/19 02:19:29;;;;;;;3.90;3.70;;;;;;;;;;2073924;28;100183;-14
2021/07/19 02:20:33;;;;;;;4.50;4.20;;;;;;;;;;2073524;28;100222;-14
2021/07/19 02:21:36;;;;;;;3.75;3.55;;;;;;;;;;2073744;28;100085;-13
2021/07/19 02:23:07;;;;;;;4.03;3.83;;;;;;;;;;2064849;28;100186;-12
2021/07/19 02:24:32;;;;;;;4.32;4.03;;;;;;;;;;2074436;28;100003;-14
2021/07/19 02:25:54;;;;;;;4.43;4.03;;;;;;;;;;2073050;28;100630;-13
2021/07/19 02:26:56;;;;;;;4.05;3.83;;;;;;;;;;2073571;28;100055;-13
2021/07/19 02:28:01;;;;;;;4.10;3.85;;;;;;;;;;2073527;28;100208;-14
2021/07/19 02:29:03;;;;;;;3.90;3.70;;;;;;;;;;2073517;28;100021;-13
2021/07/19 02:30:10;;;;;;;4.10;3.80;;;;;;;;;;2073862;28;99923;-14
2021/07/19 02:31:18;;;;;;;3.90;3.70;;;;;;;;;;2073247;28;99873;-13
2021/07/19 02:32:22;;;;;;;3.88;3.67;;;;;;;;;;2073150;28;100311;-14
2021/07/19 02:33:27;;;;;;;4.22;3.92;;;;;;;;;;2073582;28;99830;-14
2021/07/19 02:34:30;;;;;;;3.63;3.42;;;;;;;;;;2073370;28;100208;-13
2021/07/19 02:35:31;;;;;;;4.05;3.85;;;;;;;;;;2065544;28;99877;-14
2021/07/19 02:36:33;;;;;;;4.18;3.88;;;;;;;;;;2073712;28;99918;-13
2021/07/19 02:37:39;;;;;;;4.50;4.20;;;;;;;;;;2073774;28;99854;-13
2021/07/19 02:38:58;;;;;;;4.30;4.00;;;;;;;;;;2073672;28;100060;-16
2021/07/19 02:40:00;;;;;;;4.28;4.07;;;;;;;;;;2073706;28;100124;-14
2021/07/19 02:41:05;;;;;;;4.20;3.90;;;;;;;;;;2065642;28;99996;-14
2021/07/19 02:42:06;;;;;;;3.55;3.35;;;;;;;;;;2073595;28;99895;-13
2021/07/19 02:43:08;;;;;;;3.95;3.72;;;;;;;;;;2073459;28;99962;-13
2021/07/19 02:44:12;;;;;;;3.97;3.67;;;;;;;;;;2073277;28;99945;-13
2021/07/19 02:45:28;;;;;;;4.07;3.78;;;;;;;;;;2066608;28;100072;-13
2021/07/19 02:46:32;;;;;;;4.18;3.88;;;;;;;;;;2065276;28;99940;-14
2021/07/19 02:47:33;;;;;;;3.83;3.63;;;;;;;;;;2056893;28;99959;-14
2021/07/19 02:48:36;;;;;;;3.95;3.75;;;;;;;;;;2065090;28;100043;-14
2021/07/19 02:49:40;;;;;;;3.90;3.70;;;;;;;;;;2073595;28;100016;-13
2021/07/19 02:50:43;;;;;;;3.85;3.65;;;;;;;;;;2065453;28;100071;-13
2021/07/19 02:51:45;;;;;;;4.18;3.90;;;;;;;;;;2065578;28;99832;-14
2021/07/19 02:52:52;;;;;;;3.90;3.70;;;;;;;;;;2073685;28;99987;-13
2021/07/19 02:53:55;;;;;;;3.70;3.50;;;;;;;;;;2072091;28;100122;-14
2021/07/19 02:54:57;;;;;;;3.40;3.20;;;;;;;;;;2073188;28;99987;-14
2021/07/19 02:56:07;;;;;;;4.05;3.85;;;;;;;;;;2072576;28;99890;-13
2021/07/19 02:57:09;;;;;;;3.60;3.40;;;;;;;;;;2073281;28;100105;-13
2021/07/19 02:58:18;;;;;;;3.53;3.33;;;;;;;;;;2065702;28;100025;-13
2021/07/19 02:59:26;;;;;;;3.70;3.50;;;;;;;;;;2072730;28;99943;-13
2021/07/19 03:00:32;;;;;;;3.70;3.50;;;;;;;;;;2073064;28;100053;-13
2021/07/19 03:01:35;;;;;;;4.10;3.80;;;;;;;;;;2073455;28;100020;-13
2021/07/19 03:02:47;;;;;;;3.83;3.63;;;;;;;;;;2073118;28;100019;-15
2021/07/19 03:03:49;;;;;;;3.58;3.38;;;;;;;;;;2058230;28;100088;-14
2021/07/19 03:04:55;;;;;;;3.95;3.75;;;;;;;;;;2057003;28;100029;-13
2021/07/19 03:06:07;;;;;;;3.80;3.60;;;;;;;;;;2065707;28;100083;-13
2021/07/19 03:07:11;;;;;;;3.30;3.10;;;;;;;;;;2072709;28;100296;-13
2021/07/19 03:08:14;;;;;;;3.80;3.60;;;;;;;;;;2064812;28;100160;-14
2021/07/19 03:09:53;;;;;;;3.63;3.42;;;;;;;;;;2039850;28;100033;-13
2021/07/19 03:10:56;;;;;;;3.40;3.20;;;;;;;;;;2066475;28;100125;-12
2021/07/19 03:12:03;;;;;;;3.63;3.42;;;;;;;;;;2064864;28;99946;-13
2021/07/19 03:13:10;;;;;;;3.50;3.30;;;;;;;;;;2057050;28;99832;-13
2021/07/19 03:14:14;;;;;;;3.80;3.60;;;;;;;;;;2057595;28;100237;-13
2021/07/19 03:15:17;;;;;;;3.70;3.50;;;;;;;;;;2056544;28;100091;-14
2021/07/19 03:16:19;;;;;;;3.47;3.28;;;;;;;;;;2056809;28;99986;-13
2021/07/19 03:17:26;;;;;;;3.50;3.30;;;;;;;;;;2056876;28;100035;-14
2021/07/19 03:18:28;;;;;;;4.03;3.75;;;;;;;;;;2065439;28;100017;-14
2021/07/19 03:19:31;;;;;;;3.83;3.63;;;;;;;;;;2064328;28;100002;-12
2021/07/19 03:20:36;;;;;;;3.80;3.60;;;;;;;;;;2056471;28;100158;-14
2021/07/19 03:21:39;;;;;;;3.63;3.42;;;;;;;;;;2048693;28;99998;-13
2021/07/19 03:22:45;;;;;;;3.58;3.38;;;;;;;;;;2049179;28;100181;-13
2021/07/19 03:24:07;;;;;;;3.70;3.42;;;;;;;;;;2059413;28;100028;-13
2021/07/19 03:25:11;;;;;;;3.75;3.55;;;;;;;;;;2064823;28;99979;-13
2021/07/19 03:26:19;;;;;;;3.50;3.30;;;;;;;;;;2064965;28;99861;-14
2021/07/19 03:27:22;;;;;;;3.65;3.45;;;;;;;;;;2058193;28;100125;-14
2021/07/19 03:28:26;;;;;;;3.55;3.35;;;;;;;;;;2081559;27;100375;-13
2021/07/19 03:29:28;;;;;;;3.85;3.65;;;;;;;;;;2089944;27;100144;-13
2021/07/19 03:30:49;;;;;;;;;;;;;;;;;;2073609;28;99893;-14
2021/07/19 03:31:51;;;;;;;3.60;3.40;;;;;;;;;;2073039;28;99942;-13
2021/07/19 03:32:53;;;;;;;3.75;3.58;;;;;;;;;;2064886;28;99961;-13
2021/07/19 03:33:58;;;;;;;3.60;3.40;;;;;;;;;;2057003;28;99960;-13
2021/07/19 03:35:02;;;;;;;3.42;3.22;;;;;;;;;;2065195;28;99948;-14
2021/07/19 03:36:14;;;;;;;3.58;3.38;;;;;;;;;;2073228;28;99934;-14
2021/07/19 03:37:17;;;;;;;3.42;3.22;;;;;;;;;;2065482;28;100018;-13
2021/07/19 03:38:19;;;;;;;3.50;3.30;;;;;;;;;;2064780;28;100057;-13
2021/07/19 03:39:42;;;;;;;3.42;3.22;;;;;;;;;;2068130;28;99963;-13
2021/07/19 03:40:46;;;;;;;3.40;3.20;;;;;;;;;;2073239;28;100075;-13
2021/07/19 03:41:52;;;;;;;3.33;3.13;;;;;;;;;;2073371;28;100075;-14
2021/07/19 03:42:59;;;;;;;3.50;3.30;;;;;;;;;;2065526;28;99963;-14
2021/07/19 03:44:01;;;;;;;3.65;3.45;;;;;;;;;;2066009;28;100189;-13
2021/07/19 03:45:04;;;;;;;3.38;3.17;;;;;;;;;;2072974;28;99970;-14
2021/07/19 03:46:07;;;;;;;3.78;3.58;;;;;;;;;;2073564;28;100103;-14
2021/07/19 03:47:11;;;;;;;3.50;3.30;;;;;;;;;;2064841;28;99891;-13
2021/07/19 03:48:17;;;;;;;3.72;3.53;;;;;;;;;;2057110;28;99874;-14
2021/07/19 03:49:20;;;;;;;3.80;3.50;;;;;;;;;;2065601;28;99999;-13
2021/07/19 03:50:22;;;;;;;3.70;3.50;;;;;;;;;;2065493;28;99959;-14
2021/07/19 03:51:27;;;;;;;3.85;3.63;;;;;;;;;;2077816;28;99998;-14
2021/07/19 03:52:33;;;;;;;3.40;3.10;;;;;;;;;;2081343;28;99998;-14
2021/07/19 03:53:37;;;;;;;3.53;3.33;;;;;;;;;;2064813;28;100031;-16
2021/07/19 03:54:37;;;;;;;3.83;3.63;;;;;;;;;;2073395;28;99989;-14
2021/07/19 03:55:44;;;;;;;3.40;3.20;;;;;;;;;;2081176;28;99988;-13
2021/07/19 03:56:46;;;;;;;3.45;3.25;;;;;;;;;;2073304;28;99944;-13
2021/07/19 03:57:50;;;;;;;3.60;3.40;;;;;;;;;;2073156;28;100112;-13
2021/07/19 03:58:55;;;;;;;3.47;3.28;;;;;;;;;;2073585;28;100086;-13
2021/07/19 03:59:57;;;;;;;3.28;3.08;;;;;;;;;;2072772;28;100032;-12
2021/07/19 04:01:02;;;;;;;3.58;3.38;;;;;;;;;;2080520;28;100144;-13
2021/07/19 04:02:11;;;;;;;3.63;3.42;;;;;;;;;;2073582;28;99974;-13
2021/07/19 04:03:24;;;;;;;3.45;3.25;;;;;;;;;;2081833;28;102148;-14
2021/07/19 04:04:39;;;;;;;3.63;3.42;;;;;;;;;;2081409;28;99795;-13
2021/07/19 04:05:44;;;;;;;3.42;3.22;;;;;;;;;;2074971;28;100086;-13
2021/07/19 04:06:54;;;;;;;3.70;3.50;;;;;;;;;;2080764;28;100129;-13
2021/07/19 04:07:56;;;;;;;3.00;2.80;;;;;;;;;;2073151;28;100072;-11
2021/07/19 04:08:58;;;;;;;3.08;2.97;;;;;;;;;;2081369;28;100304;-12
2021/07/19 04:10:11;;;;;;;3.25;3.05;;;;;;;;;;2081264;28;100116;-13
2021/07/19 04:11:20;;;;;;;3.75;3.55;;;;;;;;;;2074502;28;100017;-12
2021/07/19 04:12:26;;;;;;;3.58;3.38;;;;;;;;;;2065545;28;100015;-13
2021/07/19 04:13:29;;;;;;;3.47;3.20;;;;;;;;;;2064682;28;100111;-14
2021/07/19 04:14:32;;;;;;;3.50;3.30;;;;;;;;;;2064303;28;100088;-12
2021/07/19 04:15:35;;;;;;;3.53;3.33;;;;;;;;;;2048848;28;100151;-13
2021/07/19 04:16:36;;;;;;;2.90;2.78;;;;;;;;;;2064499;28;100068;-13
2021/07/19 04:17:40;;;;;;;3.42;3.17;;;;;;;;;;2064596;28;99940;-12
2021/07/19 04:18:41;;;;;;;3.00;2.90;;;;;;;;;;2064538;28;99855;-12
2021/07/19 04:19:43;;;;;;;3.13;3.00;;;;;;;;;;2072837;28;100116;-13
2021/07/19 04:20:51;;;;;;;3.40;3.20;;;;;;;;;;2064651;28;99949;-12
2021/07/19 04:21:53;;;;;;;3.20;3.00;;;;;;;;;;2073164;28;100025;-12
2021/07/19 04:23:08;;;;;;;2.97;2.88;;;;;;;;;;2081184;28;99920;-13
2021/07/19 04:24:11;;;;;;;3.13;2.95;;;;;;;;;;2072433;28;99995;-12
2021/07/19 04:25:16;;;;;;;3.40;3.20;;;;;;;;;;2066548;28;100072;-13
2021/07/19 04:26:19;;;;;;;3.08;2.95;;;;;;;;;;2073118;28;99980;-13
2021/07/19 04:27:29;;;;;;;3.50;3.30;;;;;;;;;;2074363;28;100061;-14
2021/07/19 04:28:33;;;;;;;3.22;3.03;;;;;;;;;;2072879;28;99996;-11
2021/07/19 04:29:35;;;;;;;2.72;2.63;;;;;;;;;;2073582;28;100094;-13
2021/07/19 04:30:38;;;;;;;3.25;3.13;;;;;;;;;;2072876;28;100093;-12
2021/07/19 04:31:42;;;;;;;2.78;2.67;;;;;;;;;;2072673;28;99934;-11
2021/07/19 04:32:49;;;;;;;3.10;3.00;;;;;;;;;;2066106;28;99932;-12
2021/07/19 04:33:50;;;;;;;3.10;2.97;;;;;;;;;;2074394;28;99938;-13
2021/07/19 04:34:55;;;;;;;3.30;3.10;;;;;;;;;;2074746;28;100052;-12
2021/07/19 04:35:57;;;;;;;3.38;3.17;;;;;;;;;;2082470;28;100397;-11
2021/07/19 04:37:06;;;;;;;3.22;3.03;;;;;;;;;;2082425;28;100171;-13
2021/07/19 04:38:10;;;;;;;3.40;3.10;;;;;;;;;;2082547;28;99938;-12
2021/07/19 04:39:12;;;;;;;2.78;2.67;;;;;;;;;;2073859;28;100103;-12
2021/07/19 04:40:14;;;;;;;3.03;2.92;;;;;;;;;;2073641;28;100530;-12
2021/07/19 04:41:19;;;;;;;3.10;2.95;;;;;;;;;;2074156;28;100011;-12
2021/07/19 04:42:20;;;;;;;3.15;3.05;;;;;;;;;;2083174;28;99946;-12
2021/07/19 04:43:22;;;;;;;;;;;;;;;;;;2083298;28;99910;-13
2021/07/19 04:44:23;;;;;;;3.03;2.83;;;;;;;;;;2083030;28;99906;-12
2021/07/19 04:45:24;;;;;;;3.53;3.33;;;;;;;;;;2081706;28;100058;-12
2021/07/19 04:46:25;;;;;;;3.13;2.97;;;;;;;;;;2082227;28;99947;-13
2021/07/19 04:47:26;;;;;;;;;;;;;;;;;;2083152;28;100119;-12
2021/07/19 04:48:29;;;;;;;3.33;3.13;;;;;;;;;;2083184;28;99984;-12
2021/07/19 04:49:30;;;;;;;2.97;2.88;;;;;;;;;;2082366;28;100016;-13
2021/07/19 04:50:31;;;;;;;3.30;3.10;;;;;;;;;;2073817;28;99988;-12
2021/07/19 04:51:45;;;;;;;3.30;3.10;;;;;;;;;;2082295;28;100173;-13
2021/07/19 04:52:47;;;;;;;2.60;2.50;;;;;;;;;;2083047;28;99795;-12
2021/07/19 04:53:49;;;;;;;3.22;3.08;;;;;;;;;;2082382;28;100490;-11
2021/07/19 04:54:53;;;;;;;3.15;3.05;;;;;;;;;;2082442;28;100257;-13
2021/07/19 04:55:58;;;;;;;3.20;3.00;;;;;;;;;;2082290;28;102294;-12
2021/07/19 04:57:01;;;;;;;3.20;3.00;;;;;;;;;;2082350;28;99926;-12
2021/07/19 04:58:04;;;;;;;3.30;3.15;;;;;;;;;;2082307;28;100188;-13
2021/07/19 04:59:07;;;;;;;3.30;3.10;;;;;;;;;;2082679;28;99878;-12
2021/07/19 05:00:09;;;;;;;3.35;3.15;;;;;;;;;;2074077;28;99929;-12
2021/07/19 05:01:12;;;;;;;2.97;2.88;;;;;;;;;;2082762;28;100007;-18
2021/07/19 05:02:15;;;;;;;3.20;3.00;;;;;;;;;;2083126;28;99885;-13
2021/07/19 05:03:18;;;;;;;2.72;2.63;;;;;;;;;;2083046;28;99755;-13
2021/07/19 05:04:24;;;;;;;2.85;2.75;;;;;;;;;;2082739;27;99899;-13
2021/07/19 05:05:27;;;;;;;3.30;3.10;;;;;;;;;;2083260;28;99845;-12
2021/07/19 05:06:29;;;;;;;3.40;3.20;;;;;;;;;;2083171;28;99831;-13
2021/07/19 05:07:32;;;;;;;3.33;3.15;;;;;;;;;;2082571;28;99908;-13
2021/07/19 05:08:34;;;;;;;3.10;3.00;;;;;;;;;;2066464;28;99969;-13
2021/07/19 05:09:40;;;;;;;3.38;3.17;;;;;;;;;;2066361;28;100310;-13
2021/07/19 05:10:42;;;;;;;2.90;2.80;;;;;;;;;;2074793;28;99997;-13
2021/07/19 05:11:44;;;;;;;3.35;3.15;;;;;;;;;;2082607;28;100058;-13
2021/07/19 05:12:49;;;;;;;3.20;3.03;;;;;;;;;;2082469;28;99977;-12
2021/07/19 05:13:51;;;;;;;3.33;3.13;;;;;;;;;;2074779;28;99901;-12
2021/07/19 05:14:52;;;;;;;3.08;2.90;;;;;;;;;;2082226;28;100009;-13
2021/07/19 05:15:54;;;;;;;3.42;3.22;;;;;;;;;;2083098;28;100067;-13
2021/07/19 05:16:57;;;;;;;2.85;2.75;;;;;;;;;;2082259;28;99960;-12
2021/07/19 05:17:58;;;;;;;3.10;2.95;;;;;;;;;;2082523;28;100081;-14
2021/07/19 05:19:01;;;;;;;2.70;2.60;;;;;;;;;;2082458;27;100990;-13
2021/07/19 05:20:03;;;;;;;3.13;3.03;;;;;;;;;;2083277;28;100932;-13
2021/07/19 05:21:06;;;;;;;3.08;2.97;;;;;;;;;;2082908;28;99804;-12
2021/07/19 05:22:10;;;;;;;2.70;2.60;;;;;;;;;;2082954;28;99857;-12
2021/07/19 05:23:12;;;;;;;3.10;3.00;;;;;;;;;;2083122;28;99959;-12
2021/07/19 05:24:13;;;;;;;2.90;2.80;;;;;;;;;;2082523;28;99918;-13
2021/07/19 05:25:14;;;;;;;;;;;;;;;;;;2082566;28;100313;-12
2021/07/19 05:26:15;;;;;;;3.28;3.08;;;;;;;;;;2083419;27;99855;-14
2021/07/19 05:27:16;;;;;;;2.90;2.80;;;;;;;;;;2083012;28;99809;-12
2021/07/19 05:28:18;;;;;;;;;;;;;;;;;;2083621;28;99747;-12
2021/07/19 05:29:18;;;;;;;3.22;3.03;;;;;;;;;;2083317;28;99918;-12
2021/07/19 05:30:19;;;;;;;;;;;;;;;;;;2082574;28;100005;-13
2021/07/19 05:31:20;;;;;;;3.10;3.00;;;;;;;;;;2082461;28;100049;-13
2021/07/19 05:32:21;;;;;;;3.13;2.95;;;;;;;;;;2083167;28;99884;-12
2021/07/19 05:33:25;;;;;;;2.85;2.75;;;;;;;;;;2082736;28;100000;-12
2021/07/19 05:34:26;;;;;;;3.35;3.15;;;;;;;;;;2083361;27;100113;-13
2021/07/19 05:35:26;;;;;;;;;;;;;;;;;;2082358;28;99974;-13
2021/07/19 05:36:27;;;;;;;3.20;3.00;;;;;;;;;;2082436;28;99929;-12
2021/07/19 05:37:28;;;;;;;;;;;;;;;;;;2083405;28;99691;-12
2021/07/19 05:38:30;;;;;;;3.30;3.10;;;;;;;;;;2074012;28;100094;-12
2021/07/19 05:39:31;;;;;;;2.92;2.83;;;;;;;;;;2065848;28;99947;-12
2021/07/19 05:40:32;;;;;;;3.05;2.92;;;;;;;;;;2057460;28;100038;-11
2021/07/19 05:41:33;;;;;;;3.05;2.95;;;;;;;;;;2065956;28;100131;-12
2021/07/19 05:42:35;;;;;;;2.90;2.70;;;;;;;;;;2083396;28;99866;-12
2021/07/19 05:43:36;;;;;;;2.95;2.85;;;;;;;;;;2082396;28;99685;-12
2021/07/19 05:44:37;;;;;;;3.20;3.00;;;;;;;;;;2083213;28;99769;-13
2021/07/19 05:45:38;;;;;;;3.13;2.92;;;;;;;;;;2082411;27;99902;-12
2021/07/19 05:46:39;;;;;;;2.80;2.70;;;;;;;;;;2083280;28;100048;-12
2021/07/19 05:47:40;;;;;;;2.80;2.70;;;;;;;;;;2082514;28;99977;-12
2021/07/19 05:48:41;;;;;;;;;;;;;;;;;;2083551;28;99922;-12
2021/07/19 05:49:42;;;;;;;2.60;2.50;;;;;;;;;;2083072;28;99944;-12
2021/07/19 05:50:43;;;;;;;2.80;2.70;;;;;;;;;;2082441;28;99792;-12
2021/07/19 05:51:44;;;;;;;3.17;2.97;;;;;;;;;;2082859;27;99772;-12
2021/07/19 05:52:45;;;;;;;2.83;2.72;;;;;;;;;;2083331;28;99829;-12
2021/07/19 05:53:46;;;;;;;;;;;;;;;;;;2082433;28;99851;-12
2021/07/19 05:54:47;;;;;;;2.75;2.65;;;;;;;;;;2082483;28;99962;-12
2021/07/19 05:55:49;;;;;;;2.85;2.70;;;;;;;;;;2082504;27;99802;-12
2021/07/19 05:56:50;;;;;;;2.90;2.80;;;;;;;;;;2082795;28;99979;-12
2021/07/19 05:57:51;;;;;;;2.88;2.78;;;;;;;;;;2082226;28;99987;-13
2021/07/19 05:58:54;;;;;;;2.65;2.55;;;;;;;;;;2074166;28;100031;-12
2021/07/19 05:59:56;;;;;;;2.42;2.33;;;;;;;;;;2082031;28;99835;-12
2021/07/19 06:00:57;;;;;;;3.25;3.08;;;;;;;;;;2082237;28;100849;-12
2021/07/19 06:01:58;;;;;;;;;;;;;;;;;;2074151;28;99926;-12
2021/07/19 06:02:59;;;;;;;2.72;2.63;;;;;;;;;;2065501;28;100192;-13
2021/07/19 06:04:00;;;;;;;2.92;2.80;;;;;;;;;;2078289;28;100360;-11
2021/07/19 06:05:00;;;;;;;;;;;;;;;;;;2082817;28;100010;-13
2021/07/19 06:06:05;;;;;;;2.80;2.70;;;;;;;;;;2081840;28;99985;-12
2021/07/19 06:07:10;;;;;;;3.20;3.00;;;;;;;;;;2079019;28;100210;-12
2021/07/19 06:08:11;;;;;;;2.45;2.35;;;;;;;;;;2074080;28;99980;-11
2021/07/19 06:09:12;;;;;;;;;;;;;;;;;;2074952;28;100223;-13
2021/07/19 06:10:13;;;;;;;4.15;3.85;;;;;;;;;;2074499;28;99928;-12
2021/07/19 06:11:14;;;;;;;4.70;4.32;;;;;;;;;;2074718;28;99762;-12
2021/07/19 06:12:15;;;;;;;;;;;;;;;;;;2074382;28;99991;-11
2021/07/19 06:13:16;;;;;;;5.32;4.93;;;;;;;;;;2074617;28;99947;-12
2021/07/19 06:14:17;;;;;;;;;;;;;;;;;;2074886;28;99929;-11
2021/07/19 06:15:18;;;;;;;4.93;4.53;;;;;;;;;;2074306;28;99849;-12
2021/07/19 06:16:19;;;;;;;5.60;5.10;;;;;;;;;;2074168;28;99933;-13
2021/07/19 06:17:20;;;;;;;;;;;;;;;;;;2074766;28;99924;-12
2021/07/19 06:18:21;;;;;;;5.95;5.43;;;;;;;;;;2074258;28;99956;-11
2021/07/19 06:19:22;;;;;;;5.80;5.30;;;;;;;;;;2074335;28;100322;-13
2021/07/19 06:20:29;;;;;;;;;;;;;;;;;;2074831;28;99917;-13
2021/07/19 06:21:30;;;;;;;5.72;4.90;;;;;;;;;;2082039;28;100017;-12
2021/07/19 06:22:31;;;;;;;5.32;4.93;;;;;;;;;;2082173;27;100366;-12
2021/07/19 06:23:34;;;;;;;5.55;5.05;;;;;;;;;;2074099;28;99903;-13
2021/07/19 06:24:36;;;;;;;;;;;;;;;;;;2074060;28;99868;-12
2021/07/19 06:25:37;;;;;;;;;;;;;;;;;;2074107;28;100051;-14